Time;durP1;ratioP1;P1;durP2;ratioP2;P2;SDS_P1;SDS_P2;PMS_P1;PMS_P2;Temp;Humidity;BMP_temperature;BMP_pressure;BME280_temperature;BME280_humidity;BME280_pressure;Samples;Min_cycle;Max_cycle;Signal;HPM_P1;HPM_P2
2021/11/01 00:01:21;;;;;;;22.55;1.50;;;;;;;;;;5096117;28;20032;-91
2021/11/01 00:03:46;;;;;;;0.00;0.00;;;;;;;;;;5096593;28;20032;-91
2021/11/01 00:06:11;;;;;;;0.00;0.00;;;;;;;;;;5096650;28;20073;-91
2021/11/01 00:08:37;;;;;;;0.00;0.00;;;;;;;;;;5095444;28;20121;-90
2021/11/01 00:11:02;;;;;;;0.00;0.00;;;;;;;;;;5095487;28;20055;-90
2021/11/01 00:13:27;;;;;;;0.17;0.17;;;;;;;;;;5096548;28;20525;-90
2021/11/01 00:15:53;;;;;;;1.85;1.00;;;;;;;;;;5096361;28;20028;-90
2021/11/01 00:18:18;;;;;;;0.00;0.00;;;;;;;;;;5096288;28;20471;-90
2021/11/01 00:20:43;;;;;;;2.53;1.25;;;;;;;;;;5095767;28;20020;-90
2021/11/01 00:23:09;;;;;;;0.08;0.08;;;;;;;;;;5096480;28;20406;-91
2021/11/01 00:25:34;;;;;;;0.00;0.00;;;;;;;;;;5096140;28;20024;-90
2021/11/01 00:28:00;;;;;;;0.95;0.95;;;;;;;;;;5096068;28;20020;-90
2021/11/01 00:30:26;;;;;;;0.08;0.08;;;;;;;;;;5095817;28;20468;-91
2021/11/01 00:32:51;;;;;;;0.10;0.10;;;;;;;;;;5096055;28;20032;-90
2021/11/01 00:35:17;;;;;;;1.75;1.65;;;;;;;;;;5094633;28;20135;-90
2021/11/01 00:37:42;;;;;;;0.00;0.00;;;;;;;;;;5096034;28;20415;-90
2021/11/01 00:40:08;;;;;;;0.00;0.00;;;;;;;;;;5096125;28;20038;-91
2021/11/01 00:42:33;;;;;;;0.00;0.00;;;;;;;;;;5096182;28;20464;-91
2021/11/01 00:44:59;;;;;;;0.05;0.05;;;;;;;;;;5095953;28;20059;-89
2021/11/01 00:47:25;;;;;;;0.00;0.00;;;;;;;;;;5095734;28;20028;-90
2021/11/01 00:49:51;;;;;;;0.00;0.00;;;;;;;;;;5095744;28;20043;-91
2021/11/01 00:52:22;;;;;;;1.25;0.47;;;;;;;;;;5095653;28;20024;-90
2021/11/01 00:54:48;;;;;;;0.00;0.00;;;;;;;;;;5095494;28;20456;-90
2021/11/01 00:57:13;;;;;;;0.00;0.00;;;;;;;;;;5095806;28;20081;-89
2021/11/01 00:59:38;;;;;;;1.23;0.88;;;;;;;;;;5093253;28;20044;-90
2021/11/01 01:02:03;;;;;;;0.00;0.00;;;;;;;;;;5095214;28;20040;-90
2021/11/01 01:04:29;;;;;;;0.40;0.40;;;;;;;;;;5091719;28;20101;-90
2021/11/01 01:06:54;;;;;;;4.30;2.53;;;;;;;;;;5094045;28;20070;-90
2021/11/01 01:09:19;;;;;;;0.00;0.00;;;;;;;;;;5095250;28;20464;-90
2021/11/01 01:11:45;;;;;;;0.20;0.20;;;;;;;;;;5095678;28;20069;-89
2021/11/01 01:14:11;;;;;;;0.45;0.45;;;;;;;;;;5095581;28;20024;-89
2021/11/01 01:16:43;;;;;;;0.00;0.00;;;;;;;;;;5095253;28;20028;-91
2021/11/01 01:19:16;;;;;;;4.90;0.90;;;;;;;;;;5094998;28;20124;-89
2021/11/01 01:24:25;;;;;;;0.00;0.00;;;;;;;;;;5094783;28;20039;-90
2021/11/01 01:26:51;;;;;;;0.00;0.00;;;;;;;;;;5095126;28;20028;-91
2021/11/01 01:29:16;;;;;;;0.10;0.10;;;;;;;;;;5094605;28;20063;-89
2021/11/01 01:31:41;;;;;;;0.00;0.00;;;;;;;;;;5094032;28;20023;-90
2021/11/01 01:34:07;;;;;;;0.00;0.00;;;;;;;;;;5094654;28;20055;-90
2021/11/01 01:36:32;;;;;;;0.98;0.80;;;;;;;;;;5094321;28;20044;-90
2021/11/01 01:38:57;;;;;;;0.00;0.00;;;;;;;;;;5094847;28;20077;-90
2021/11/01 01:41:24;;;;;;;0.10;0.10;;;;;;;;;;5094788;28;20028;-90
2021/11/01 01:43:52;;;;;;;0.13;0.13;;;;;;;;;;5094650;28;20032;-90
2021/11/01 01:46:18;;;;;;;0.00;0.00;;;;;;;;;;5094644;28;20020;-90
2021/11/01 01:48:44;;;;;;;0.10;0.10;;;;;;;;;;5094747;28;20078;-90
2021/11/01 01:51:09;;;;;;;0.00;0.00;;;;;;;;;;5094787;28;20084;-90
2021/11/01 01:53:35;;;;;;;0.00;0.00;;;;;;;;;;5094593;28;20024;-90
2021/11/01 01:56:01;;;;;;;1.02;0.85;;;;;;;;;;5085383;28;20035;-90
2021/11/01 01:58:50;;;;;;;0.00;0.00;;;;;;;;;;5074286;28;20037;-90
2021/11/01 02:01:16;;;;;;;0.00;0.00;;;;;;;;;;5074219;28;20073;-90
2021/11/01 02:03:45;;;;;;;0.65;0.65;;;;;;;;;;5074375;28;20088;-90
2021/11/01 02:06:13;;;;;;;0.00;0.00;;;;;;;;;;5074280;28;20022;-90
2021/11/01 02:08:42;;;;;;;0.05;0.05;;;;;;;;;;5074428;28;20028;-90
2021/11/01 02:11:14;;;;;;;0.00;0.00;;;;;;;;;;5074159;28;20060;-90
2021/11/01 02:13:43;;;;;;;0.20;0.20;;;;;;;;;;5074236;28;20036;-90
2021/11/01 02:16:11;;;;;;;0.10;0.10;;;;;;;;;;5074155;28;20119;-90
2021/11/01 02:18:37;;;;;;;0.10;0.10;;;;;;;;;;5073679;28;20514;-90
2021/11/01 02:21:02;;;;;;;0.00;0.00;;;;;;;;;;5074163;28;20025;-90
2021/11/01 02:23:30;;;;;;;0.10;0.10;;;;;;;;;;5074085;28;20107;-90
2021/11/01 02:26:00;;;;;;;0.10;0.10;;;;;;;;;;5074072;28;20358;-90
2021/11/01 02:28:33;;;;;;;0.00;0.00;;;;;;;;;;5073623;28;20090;-90
2021/11/01 02:31:00;;;;;;;0.00;0.00;;;;;;;;;;5074007;28;20037;-91
2021/11/01 02:33:25;;;;;;;0.10;0.10;;;;;;;;;;5074057;28;20040;-91
2021/11/01 02:35:52;;;;;;;0.00;0.00;;;;;;;;;;5073824;28;20044;-90
2021/11/01 02:38:18;;;;;;;0.00;0.00;;;;;;;;;;5073273;28;20051;-90
2021/11/01 02:40:47;;;;;;;0.00;0.00;;;;;;;;;;5074080;28;20044;-90
2021/11/01 02:43:12;;;;;;;0.10;0.10;;;;;;;;;;5073511;28;20353;-91
2021/11/01 02:45:38;;;;;;;0.00;0.00;;;;;;;;;;5078155;28;20039;-90
2021/11/01 02:48:03;;;;;;;0.00;0.00;;;;;;;;;;5076920;28;20506;-91
2021/11/01 02:50:28;;;;;;;0.10;0.10;;;;;;;;;;5077412;28;20076;-90
2021/11/01 02:52:54;;;;;;;0.30;0.30;;;;;;;;;;5077739;28;20056;-91
2021/11/01 02:55:20;;;;;;;0.10;0.10;;;;;;;;;;5077688;28;20027;-91
2021/11/01 02:57:46;;;;;;;0.10;0.10;;;;;;;;;;5077667;28;20103;-90
2021/11/01 03:00:12;;;;;;;0.00;0.00;;;;;;;;;;5077425;28;20115;-90
2021/11/01 03:02:37;;;;;;;0.00;0.00;;;;;;;;;;5077040;28;20481;-90
2021/11/01 03:05:03;;;;;;;0.00;0.00;;;;;;;;;;5076986;28;20104;-91
2021/11/01 03:07:30;;;;;;;0.47;0.47;;;;;;;;;;5077586;28;20366;-91
2021/11/01 03:09:55;;;;;;;0.47;0.47;;;;;;;;;;5077387;28;20029;-91
2021/11/01 03:12:24;;;;;;;0.00;0.00;;;;;;;;;;5073642;28;20471;-90
2021/11/01 03:14:51;;;;;;;0.00;0.00;;;;;;;;;;5077361;28;20127;-90
2021/11/01 03:17:24;;;;;;;0.85;0.85;;;;;;;;;;5077217;28;20452;-91
2021/11/01 03:19:53;;;;;;;0.32;0.32;;;;;;;;;;5077273;28;20047;-91
2021/11/01 03:22:19;;;;;;;0.00;0.00;;;;;;;;;;5077284;28;20032;-90
2021/11/01 03:24:47;;;;;;;0.15;0.15;;;;;;;;;;5077325;28;20362;-90
2021/11/01 03:27:14;;;;;;;0.38;0.30;;;;;;;;;;5076007;28;20028;-92
2021/11/01 03:29:40;;;;;;;3.75;0.90;;;;;;;;;;5075549;28;20058;-90
2021/11/01 03:32:07;;;;;;;0.03;0.03;;;;;;;;;;5076954;28;20077;-90
2021/11/01 03:34:32;;;;;;;0.70;0.68;;;;;;;;;;5077187;28;20038;-91
2021/11/01 03:37:03;;;;;;;0.00;0.00;;;;;;;;;;5076588;28;20119;-91
2021/11/01 03:39:28;;;;;;;3.20;2.75;;;;;;;;;;5076507;28;20040;-91
2021/11/01 03:41:54;;;;;;;0.10;0.10;;;;;;;;;;5076428;28;20037;-91
2021/11/01 03:44:25;;;;;;;1.40;1.30;;;;;;;;;;5076199;28;20037;-90
2021/11/01 03:49:16;;;;;;;1.88;1.65;;;;;;;;;;5076362;28;20120;-90
2021/11/01 03:51:46;;;;;;;0.00;0.00;;;;;;;;;;5076654;28;20047;-90
2021/11/01 03:54:15;;;;;;;1.77;0.45;;;;;;;;;;5075853;28;20154;-90
2021/11/01 03:56:42;;;;;;;0.10;0.10;;;;;;;;;;5076033;28;20499;-90
2021/11/01 03:59:07;;;;;;;0.52;0.35;;;;;;;;;;5075898;28;20470;-90
2021/11/01 04:01:39;;;;;;;0.00;0.00;;;;;;;;;;5076336;28;20027;-90
2021/11/01 04:04:05;;;;;;;0.10;0.10;;;;;;;;;;5076495;28;20032;-90
2021/11/01 04:06:30;;;;;;;0.95;0.90;;;;;;;;;;5076355;28;20024;-91
2021/11/01 04:08:56;;;;;;;0.40;0.40;;;;;;;;;;5073924;28;20028;-90
2021/11/01 04:11:22;;;;;;;0.00;0.00;;;;;;;;;;5072897;28;20473;-90
2021/11/01 04:13:48;;;;;;;0.10;0.10;;;;;;;;;;5076409;28;20025;-90
2021/11/01 04:16:16;;;;;;;0.10;0.10;;;;;;;;;;5076172;28;20444;-91
2021/11/01 04:21:21;;;;;;;0.10;0.10;;;;;;;;;;5075631;28;20021;-90
2021/11/01 04:23:47;;;;;;;0.10;0.10;;;;;;;;;;5075455;28;20082;-89
2021/11/01 04:26:15;;;;;;;0.08;0.08;;;;;;;;;;5075106;28;20035;-89
2021/11/01 04:28:41;;;;;;;0.00;0.00;;;;;;;;;;5075918;28;20021;-89
2021/11/01 04:31:12;;;;;;;0.10;0.10;;;;;;;;;;5075518;28;20158;-89
2021/11/01 04:33:40;;;;;;;0.10;0.10;;;;;;;;;;5074915;28;20028;-90
2021/11/01 04:36:05;;;;;;;0.00;0.00;;;;;;;;;;5075200;28;20045;-90
2021/11/01 04:38:57;;;;;;;0.00;0.00;;;;;;;;;;5075605;28;20036;-90
2021/11/01 04:54:44;;;;;;;0.00;0.00;;;;;;;;;;5075291;28;20043;-90
2021/11/01 04:57:10;;;;;;;0.10;0.10;;;;;;;;;;5075285;28;20016;-90
2021/11/01 04:59:37;;;;;;;0.10;0.10;;;;;;;;;;5074453;28;20043;-90
2021/11/01 05:02:03;;;;;;;0.20;0.20;;;;;;;;;;5073001;28;20119;-90
2021/11/01 05:04:32;;;;;;;0.00;0.00;;;;;;;;;;5075278;28;20062;-90
2021/11/01 05:07:01;;;;;;;0.00;0.00;;;;;;;;;;5075004;28;20158;-90
2021/11/01 05:09:31;;;;;;;1.00;0.90;;;;;;;;;;5074649;28;20052;-90
2021/11/01 05:12:08;;;;;;;0.10;0.10;;;;;;;;;;5075081;28;20027;-90
2021/11/01 05:14:42;;;;;;;0.10;0.10;;;;;;;;;;5073399;28;20511;-90
2021/11/01 05:20:15;;;;;;;0.17;0.17;;;;;;;;;;5074819;28;20044;-90
2021/11/01 05:22:44;;;;;;;0.10;0.10;;;;;;;;;;5074896;28;20028;-90
2021/11/01 05:30:10;;;;;;;0.10;0.10;;;;;;;;;;5074167;28;20377;-90
2021/11/01 05:32:39;;;;;;;0.75;0.52;;;;;;;;;;5074690;28;20100;-90
2021/11/01 05:35:04;;;;;;;0.00;0.00;;;;;;;;;;5074471;28;20047;-90
2021/11/01 05:37:29;;;;;;;0.00;0.00;;;;;;;;;;5074028;28;20045;-90
2021/11/01 05:39:55;;;;;;;0.00;0.00;;;;;;;;;;5074648;28;20396;-90
2021/11/01 05:42:20;;;;;;;0.13;0.13;;;;;;;;;;5071226;28;20066;-90
2021/11/01 05:44:45;;;;;;;0.10;0.10;;;;;;;;;;5074484;28;20025;-90
2021/11/01 05:47:11;;;;;;;0.55;0.55;;;;;;;;;;5074465;28;20435;-90
2021/11/01 05:49:38;;;;;;;0.00;0.00;;;;;;;;;;5083884;28;20020;-90
2021/11/01 05:52:06;;;;;;;0.00;0.00;;;;;;;;;;5094496;28;20472;-91
2021/11/01 05:54:32;;;;;;;1.30;1.17;;;;;;;;;;5091324;28;20028;-91
2021/11/01 06:14:50;;;;;;;0.10;0.10;;;;;;;;;;5094043;28;20066;-89
2021/11/01 06:17:15;;;;;;;0.00;0.00;;;;;;;;;;5094281;28;20060;-90
2021/11/01 06:19:40;;;;;;;0.10;0.10;;;;;;;;;;5094550;28;20035;-89
2021/11/01 06:22:06;;;;;;;0.00;0.00;;;;;;;;;;5098599;28;20035;-89
2021/11/01 06:27:02;;;;;;;0.10;0.10;;;;;;;;;;5098561;28;20448;-89
2021/11/01 06:29:35;;;;;;;0.30;0.30;;;;;;;;;;5098316;28;20022;-90
2021/11/01 06:32:12;;;;;;;0.10;0.10;;;;;;;;;;5097245;28;20039;-89
2021/11/01 06:58:30;;;;;;;0.17;0.17;;;;;;;;;;5076612;28;20052;-88
2021/11/01 07:14:50;;;;;;;0.10;0.10;;;;;;;;;;5076875;28;20128;-88
2021/11/01 07:17:35;;;;;;;0.10;0.10;;;;;;;;;;5077246;28;20012;-88
2021/11/01 08:20:45;;;;;;;0.10;0.10;;;;;;;;;;5092758;28;20036;-89
2021/11/01 08:21:28;;;;;;;0.20;0.20;;;;;;;;;;5091292;28;20161;-89
2021/11/01 08:36:54;;;;;;;0.10;0.10;;;;;;;;;;5091660;28;20095;-90
2021/11/01 08:45:09;;;;;;;0.10;0.10;;;;;;;;;;5091170;28;20028;-86
2021/11/01 09:19:55;;;;;;;0.55;0.25;;;;;;;;;;5090996;28;20032;-86
2021/11/01 09:23:09;;;;;;;2.42;0.22;;;;;;;;;;5091434;28;20046;-86
2021/11/01 09:27:37;;;;;;;0.77;0.55;;;;;;;;;;5091261;28;20071;-86
2021/11/01 09:30:21;;;;;;;0.52;0.10;;;;;;;;;;5082902;28;20456;-86
2021/11/01 09:43:20;;;;;;;0.00;0.00;;;;;;;;;;5093752;28;20394;-86
2021/11/01 09:45:46;;;;;;;0.00;0.00;;;;;;;;;;5093424;28;20036;-86
2021/11/01 09:48:12;;;;;;;0.00;0.00;;;;;;;;;;5091678;28;20039;-87
2021/11/01 09:50:37;;;;;;;0.43;0.43;;;;;;;;;;5093195;28;20020;-87
2021/11/01 09:53:11;;;;;;;0.15;0.10;;;;;;;;;;5092954;28;20036;-87
2021/11/01 10:00:50;;;;;;;0.28;0.28;;;;;;;;;;5092992;28;20039;-87
2021/11/01 10:03:15;;;;;;;0.00;0.00;;;;;;;;;;5093609;28;20036;-87
2021/11/01 10:05:57;;;;;;;0.13;0.13;;;;;;;;;;5089382;28;20024;-87
2021/11/01 10:08:23;;;;;;;0.00;0.00;;;;;;;;;;5093315;28;20027;-87
2021/11/01 10:10:48;;;;;;;0.00;0.00;;;;;;;;;;5092567;28;20036;-87
2021/11/01 10:13:14;;;;;;;0.00;0.00;;;;;;;;;;5085170;28;20095;-88
2021/11/01 10:18:24;;;;;;;0.00;0.00;;;;;;;;;;5072838;28;20519;-87
2021/11/01 10:20:54;;;;;;;1.08;0.65;;;;;;;;;;5087654;28;20020;-88
2021/11/01 10:23:24;;;;;;;0.57;0.57;;;;;;;;;;5091555;28;20028;-88
2021/11/01 10:25:50;;;;;;;0.10;0.10;;;;;;;;;;5092706;28;20023;-88
2021/11/01 10:28:25;;;;;;;0.47;0.47;;;;;;;;;;5091465;28;20115;-87
2021/11/01 10:30:51;;;;;;;;;;;;;;;;;;5092291;28;20029;-87
2021/11/01 10:33:16;;;;;;;0.00;0.00;;;;;;;;;;5089127;28;19911;-87
2021/11/01 10:35:43;;;;;;;0.00;0.00;;;;;;;;;;5073146;28;20289;-87
2021/11/01 10:40:53;;;;;;;0.10;0.10;;;;;;;;;;5085696;28;20380;-87
2021/11/01 10:43:39;;;;;;;0.00;0.00;;;;;;;;;;5091703;28;20036;-87
2021/11/01 11:13:17;;;;;;;0.32;0.32;;;;;;;;;;5095161;28;20024;-87
2021/11/01 11:15:45;;;;;;;0.00;0.00;;;;;;;;;;5094946;28;20040;-87
2021/11/01 11:29:28;;;;;;;0.00;0.00;;;;;;;;;;5075068;28;20507;-88
2021/11/01 11:43:22;;;;;;;0.28;0.28;;;;;;;;;;5032239;28;20112;-87
2021/11/01 11:48:42;;;;;;;0.00;0.00;;;;;;;;;;5074706;28;20082;-87
2021/11/01 11:51:11;;;;;;;0.00;0.00;;;;;;;;;;5073393;28;20040;-87
2021/11/01 11:53:49;;;;;;;0.00;0.00;;;;;;;;;;5074686;28;20071;-87
2021/11/01 11:56:16;;;;;;;0.10;0.10;;;;;;;;;;5073933;28;20520;-87
2021/11/01 11:58:43;;;;;;;0.00;0.00;;;;;;;;;;5073979;28;20068;-87
2021/11/01 12:01:24;;;;;;;0.00;0.00;;;;;;;;;;5074188;28;20036;-87
2021/11/01 12:03:50;;;;;;;9.07;2.08;;;;;;;;;;5073837;28;20485;-87
2021/11/01 12:06:19;;;;;;;0.00;0.00;;;;;;;;;;5073966;28;20062;-87
2021/11/01 12:08:50;;;;;;;0.00;0.00;;;;;;;;;;5074520;28;20028;-87
2021/11/01 12:12:10;;;;;;;0.00;0.00;;;;;;;;;;5074297;28;20032;-87
2021/11/01 12:19:24;;;;;;;0.20;0.20;;;;;;;;;;5073396;28;20075;-86
2021/11/01 12:21:53;;;;;;;0.00;0.00;;;;;;;;;;5073450;28;20492;-88
2021/11/01 12:24:23;;;;;;;0.10;0.10;;;;;;;;;;5072288;28;20056;-87
2021/11/01 12:27:09;;;;;;;0.00;0.00;;;;;;;;;;5073090;28;20012;-87
2021/11/01 12:29:35;;;;;;;0.00;0.00;;;;;;;;;;5073556;28;20127;-87
2021/11/01 12:32:04;;;;;;;0.20;0.13;;;;;;;;;;5082133;28;20055;-87
2021/11/01 12:34:31;;;;;;;0.10;0.10;;;;;;;;;;5072970;28;20115;-87
2021/11/01 12:37:12;;;;;;;0.00;0.00;;;;;;;;;;5093192;28;20044;-87
2021/11/01 12:39:51;;;;;;;0.00;0.00;;;;;;;;;;5092577;28;20058;-86
2021/11/01 12:58:42;;;;;;;0.10;0.10;;;;;;;;;;5073118;28;20052;-86
2021/11/01 13:01:15;;;;;;;0.00;0.00;;;;;;;;;;5077539;28;20024;-87
2021/11/01 13:03:47;;;;;;;0.00;0.00;;;;;;;;;;5074332;28;20029;-86
2021/11/01 13:06:22;;;;;;;0.00;0.00;;;;;;;;;;5073899;28;20020;-87
2021/11/01 13:08:49;;;;;;;0.00;0.00;;;;;;;;;;5073516;28;20532;-87
2021/11/01 13:19:23;;;;;;;0.00;0.00;;;;;;;;;;5073355;28;20098;-87
2021/11/01 13:22:11;;;;;;;0.00;0.00;;;;;;;;;;5075428;28;20016;-87
2021/11/01 13:24:59;;;;;;;0.52;0.52;;;;;;;;;;5072949;28;20408;-87
2021/11/01 13:27:54;;;;;;;0.17;0.17;;;;;;;;;;5073115;28;20035;-87
2021/11/01 13:38:25;;;;;;;0.57;0.57;;;;;;;;;;5088580;28;20032;-87
2021/11/01 13:40:50;;;;;;;0.00;0.00;;;;;;;;;;5073255;28;20025;-87
2021/11/01 13:43:24;;;;;;;0.00;0.00;;;;;;;;;;5072360;28;20028;-87
2021/11/01 13:45:53;;;;;;;0.00;0.00;;;;;;;;;;5073046;28;20020;-86
2021/11/01 13:48:25;;;;;;;0.45;0.45;;;;;;;;;;5072779;28;20044;-86
2021/11/01 13:50:59;;;;;;;0.00;0.00;;;;;;;;;;5072798;28;20024;-86
2021/11/01 13:53:25;;;;;;;0.00;0.00;;;;;;;;;;5073136;28;20074;-87
2021/11/01 13:56:02;;;;;;;0.00;0.00;;;;;;;;;;5073017;28;20021;-87
2021/11/01 14:01:27;;;;;;;0.10;0.10;;;;;;;;;;5072585;28;20504;-87
2021/11/01 14:17:17;;;;;;;0.00;0.00;;;;;;;;;;5092885;28;20040;-87
2021/11/01 14:33:57;;;;;;;0.00;0.00;;;;;;;;;;5092190;28;19920;-87
2021/11/01 15:13:30;;;;;;;0.00;0.00;;;;;;;;;;5079296;28;20036;-86
2021/11/01 15:23:47;;;;;;;0.00;0.00;;;;;;;;;;5079252;28;20040;-87
2021/11/01 16:17:20;;;;;;;0.10;0.10;;;;;;;;;;5095072;28;20127;-87
2021/11/01 16:19:49;;;;;;;0.00;0.00;;;;;;;;;;5092423;28;20031;-87
2021/11/01 16:22:17;;;;;;;0.65;0.65;;;;;;;;;;5095251;28;20119;-87
2021/11/01 16:24:42;;;;;;;0.10;0.10;;;;;;;;;;5093129;28;20350;-87
2021/11/01 16:27:08;;;;;;;0.00;0.00;;;;;;;;;;5093986;28;20046;-87
2021/11/01 16:29:46;;;;;;;0.17;0.17;;;;;;;;;;5093044;28;20039;-87
2021/11/01 16:32:17;;;;;;;0.10;0.10;;;;;;;;;;5093937;28;20057;-87
2021/11/01 16:34:45;;;;;;;0.08;0.08;;;;;;;;;;5092890;28;20028;-87
2021/11/01 16:37:20;;;;;;;0.93;0.88;;;;;;;;;;5093752;28;20123;-87
2021/11/01 16:39:48;;;;;;;2.90;2.47;;;;;;;;;;5092282;28;20443;-87
2021/11/01 16:42:14;;;;;;;89.03;31.60;;;;;;;;;;5073610;28;20077;-87
2021/11/01 16:44:42;;;;;;;6.72;6.05;;;;;;;;;;5068358;28;20552;-87
2021/11/01 16:47:07;;;;;;;19.65;7.35;;;;;;;;;;5072564;28;20050;-87
2021/11/01 16:49:33;;;;;;;7.00;5.82;;;;;;;;;;5067854;28;20506;-86
2021/11/01 16:52:11;;;;;;;16.45;1.50;;;;;;;;;;5072998;28;20038;-87
2021/11/01 16:54:37;;;;;;;0.10;0.10;;;;;;;;;;5072294;28;20476;-87
2021/11/01 16:57:13;;;;;;;0.10;0.10;;;;;;;;;;5072796;28;20060;-87
2021/11/01 16:59:47;;;;;;;6.95;1.30;;;;;;;;;;5072179;28;20040;-87
2021/11/01 17:04:42;;;;;;;0.20;0.20;;;;;;;;;;5072623;28;20060;-87
2021/11/01 17:07:17;;;;;;;0.13;0.13;;;;;;;;;;5072855;28;20059;-87
2021/11/01 17:36:37;;;;;;;0.32;0.32;;;;;;;;;;5072561;28;20059;-87
2021/11/01 18:51:32;;;;;;;0.10;0.10;;;;;;;;;;5092700;28;20062;-87
2021/11/01 18:54:21;;;;;;;0.10;0.10;;;;;;;;;;5090582;28;20030;-87
2021/11/01 18:56:47;;;;;;;0.10;0.10;;;;;;;;;;5092760;28;20045;-87
2021/11/01 18:59:12;;;;;;;0.10;0.10;;;;;;;;;;5088515;28;20040;-88
2021/11/01 19:01:39;;;;;;;0.10;0.10;;;;;;;;;;5071934;28;20076;-87
2021/11/01 19:04:11;;;;;;;0.13;0.13;;;;;;;;;;5071861;28;20027;-84
2021/11/01 19:06:49;;;;;;;0.10;0.10;;;;;;;;;;5069851;28;20025;-88
2021/11/01 19:09:37;;;;;;;0.30;0.30;;;;;;;;;;5072010;28;20033;-88
2021/11/01 20:04:08;;;;;;;0.10;0.10;;;;;;;;;;5082501;28;20045;-89
2021/11/01 21:26:19;;;;;;;0.10;0.10;;;;;;;;;;5092177;28;20549;-88
2021/11/01 21:28:45;;;;;;;0.10;0.10;;;;;;;;;;5093530;28;20032;-88
2021/11/01 21:31:10;;;;;;;0.20;0.20;;;;;;;;;;5085173;28;20098;-88
2021/11/01 21:33:36;;;;;;;0.10;0.10;;;;;;;;;;5073180;28;20063;-89
2021/11/01 21:36:06;;;;;;;0.28;0.28;;;;;;;;;;5073834;28;20048;-88
2021/11/01 21:38:32;;;;;;;0.20;0.20;;;;;;;;;;5073569;28;20059;-89
2021/11/01 21:40:58;;;;;;;0.10;0.10;;;;;;;;;;5070804;28;20072;-89
2021/11/01 21:43:23;;;;;;;0.63;0.63;;;;;;;;;;5073092;28;20031;-89
2021/11/01 21:45:49;;;;;;;1.95;1.52;;;;;;;;;;5073759;28;20115;-89
2021/11/01 21:48:14;;;;;;;0.10;0.10;;;;;;;;;;5070706;28;20461;-89
2021/11/01 21:50:44;;;;;;;0.85;0.85;;;;;;;;;;5073276;28;20104;-90
2021/11/01 21:53:10;;;;;;;1.67;1.58;;;;;;;;;;5073574;28;20073;-90
2021/11/01 21:55:36;;;;;;;0.17;0.17;;;;;;;;;;5073575;28;20029;-90
2021/11/01 21:58:05;;;;;;;0.10;0.10;;;;;;;;;;5078227;28;20016;-91
2021/11/01 22:20:06;;;;;;;0.10;0.10;;;;;;;;;;5078123;28;20047;-90
2021/11/01 22:25:20;;;;;;;0.32;0.32;;;;;;;;;;5075501;28;20040;-88
2021/11/01 22:56:52;;;;;;;0.10;0.10;;;;;;;;;;5093524;28;20046;-89
2021/11/01 22:59:18;;;;;;;0.10;0.10;;;;;;;;;;5090832;28;20131;-89
2021/11/01 23:01:45;;;;;;;0.93;0.82;;;;;;;;;;5096472;28;20539;-89
2021/11/01 23:31:25;;;;;;;0.10;0.10;;;;;;;;;;5097105;28;20065;-89
2021/11/01 23:31:29;;;;;;;0.10;0.10;;;;;;;;;;5097412;28;20093;-90
2021/11/01 23:33:54;;;;;;;0.35;0.35;;;;;;;;;;5095857;28;20020;-89
2021/11/01 23:36:19;;;;;;;0.22;0.22;;;;;;;;;;5097243;28;20134;-89
2021/11/01 23:38:45;;;;;;;0.10;0.10;;;;;;;;;;5096366;28;20048;-89
2021/11/01 23:41:10;;;;;;;0.38;0.38;;;;;;;;;;5097223;28;20016;-89
2021/11/01 23:43:36;;;;;;;0.65;0.65;;;;;;;;;;5096589;28;20485;-89
2021/11/01 23:46:01;;;;;;;0.10;0.10;;;;;;;;;;5095359;28;20380;-89
2021/11/01 23:48:27;;;;;;;0.20;0.20;;;;;;;;;;5096423;28;20016;-89
2021/11/01 23:50:52;;;;;;;0.10;0.10;;;;;;;;;;5096068;28;20487;-89
2021/11/01 23:55:58;;;;;;;0.15;0.15;;;;;;;;;;5096854;28;20085;-89
2021/11/01 23:58:23;;;;;;;0.30;0.30;;;;;;;;;;5096556;28;20027;-89
